sensor_id;sensor_type;location;lat;lon;timestamp;temperature;humidity
14378;DHT22;7272;53.668;9.578;2022-12-29T00:01:53;9.80;99.90
14378;DHT22;7272;53.668;9.578;2022-12-29T00:04:56;9.80;99.90
14378;DHT22;7272;53.668;9.578;2022-12-29T00:07:58;9.80;99.90
14378;DHT22;7272;53.668;9.578;2022-12-29T00:11:05;9.90;99.90
14378;DHT22;7272;53.668;9.578;2022-12-29T00:14:09;9.90;99.90
14378;DHT22;7272;53.668;9.578;2022-12-29T00:17:29;9.90;99.90
14378;DHT22;7272;53.668;9.578;2022-12-29T00:20:33;9.90;99.90
14378;DHT22;7272;53.668;9.578;2022-12-29T00:23:54;10.00;99.90
14378;DHT22;7272;53.668;9.578;2022-12-29T00:27:15;10.00;99.90
14378;DHT22;7272;53.668;9.578;2022-12-29T00:30:39;10.00;99.90
14378;DHT22;7272;53.668;9.578;2022-12-29T00:33:58;10.00;99.90
14378;DHT22;7272;53.668;9.578;2022-12-29T00:37:20;10.00;99.90
14378;DHT22;7272;53.668;9.578;2022-12-29T00:40:43;10.10;99.90
14378;DHT22;7272;53.668;9.578;2022-12-29T00:44:05;10.10;99.90
14378;DHT22;7272;53.668;9.578;2022-12-29T00:47:10;10.10;99.90
14378;DHT22;7272;53.668;9.578;2022-12-29T00:50:13;10.10;99.90
14378;DHT22;7272;53.668;9.578;2022-12-29T00:53:16;10.10;99.90
14378;DHT22;7272;53.668;9.578;2022-12-29T00:56:18;10.20;99.90
14378;DHT22;7272;53.668;9.578;2022-12-29T00:59:23;10.20;99.90
14378;DHT22;7272;53.668;9.578;2022-12-29T01:02:25;10.20;99.90
14378;DHT22;7272;53.668;9.578;2022-12-29T01:05:28;10.20;99.90
14378;DHT22;7272;53.668;9.578;2022-12-29T01:08:32;10.20;99.90
14378;DHT22;7272;53.668;9.578;2022-12-29T01:11:34;10.20;99.90
14378;DHT22;7272;53.668;9.578;2022-12-29T01:14:38;10.20;99.90
14378;DHT22;7272;53.668;9.578;2022-12-29T01:17:41;10.20;99.90
14378;DHT22;7272;53.668;9.578;2022-12-29T01:20:43;10.30;99.90
14378;DHT22;7272;53.668;9.578;2022-12-29T01:23:46;10.30;99.90
14378;DHT22;7272;53.668;9.578;2022-12-29T01:26:49;10.30;99.90
14378;DHT22;7272;53.668;9.578;2022-12-29T01:29:52;10.30;99.90
14378;DHT22;7272;53.668;9.578;2022-12-29T01:32:55;10.30;99.90
14378;DHT22;7272;53.668;9.578;2022-12-29T01:36:00;10.30;99.90
14378;DHT22;7272;53.668;9.578;2022-12-29T01:39:03;10.40;99.90
14378;DHT22;7272;53.668;9.578;2022-12-29T01:42:14;10.40;99.90
14378;DHT22;7272;53.668;9.578;2022-12-29T01:45:19;10.40;99.90
14378;DHT22;7272;53.668;9.578;2022-12-29T01:48:23;10.40;99.90
14378;DHT22;7272;53.668;9.578;2022-12-29T01:51:26;10.40;99.90
14378;DHT22;7272;53.668;9.578;2022-12-29T01:54:32;10.40;99.90
14378;DHT22;7272;53.668;9.578;2022-12-29T01:57:37;10.40;99.90
14378;DHT22;7272;53.668;9.578;2022-12-29T02:00:42;10.40;99.90
14378;DHT22;7272;53.668;9.578;2022-12-29T02:03:44;10.40;99.90
14378;DHT22;7272;53.668;9.578;2022-12-29T02:06:51;10.50;99.90
14378;DHT22;7272;53.668;9.578;2022-12-29T02:09:55;10.50;99.90
14378;DHT22;7272;53.668;9.578;2022-12-29T02:12:57;10.50;99.90
14378;DHT22;7272;53.668;9.578;2022-12-29T02:16:09;10.50;99.90
14378;DHT22;7272;53.668;9.578;2022-12-29T02:19:57;10.50;99.90
14378;DHT22;7272;53.668;9.578;2022-12-29T02:23:26;10.50;99.90
14378;DHT22;7272;53.668;9.578;2022-12-29T02:26:44;10.50;99.90
14378;DHT22;7272;53.668;9.578;2022-12-29T02:30:05;10.50;99.90
14378;DHT22;7272;53.668;9.578;2022-12-29T02:33:18;10.60;99.90
14378;DHT22;7272;53.668;9.578;2022-12-29T02:36:26;10.60;99.90
14378;DHT22;7272;53.668;9.578;2022-12-29T02:39:37;10.60;99.90
14378;DHT22;7272;53.668;9.578;2022-12-29T02:42:45;10.60;99.90
14378;DHT22;7272;53.668;9.578;2022-12-29T02:45:53;10.60;99.90
14378;DHT22;7272;53.668;9.578;2022-12-29T02:49:04;10.60;99.90
14378;DHT22;7272;53.668;9.578;2022-12-29T02:52:10;10.60;99.90
14378;DHT22;7272;53.668;9.578;2022-12-29T02:55:16;10.60;99.90
14378;DHT22;7272;53.668;9.578;2022-12-29T02:58:19;10.60;99.90
14378;DHT22;7272;53.668;9.578;2022-12-29T03:01:29;10.60;99.90
14378;DHT22;7272;53.668;9.578;2022-12-29T03:04:40;10.70;99.90
14378;DHT22;7272;53.668;9.578;2022-12-29T03:07:51;10.70;99.90
14378;DHT22;7272;53.668;9.578;2022-12-29T03:11:01;10.70;99.90
14378;DHT22;7272;53.668;9.578;2022-12-29T03:14:09;10.70;99.90
14378;DHT22;7272;53.668;9.578;2022-12-29T03:17:39;10.70;99.90
14378;DHT22;7272;53.668;9.578;2022-12-29T03:20:48;10.70;99.90
14378;DHT22;7272;53.668;9.578;2022-12-29T03:23:51;10.80;99.90
14378;DHT22;7272;53.668;9.578;2022-12-29T03:26:54;10.80;99.90
14378;DHT22;7272;53.668;9.578;2022-12-29T03:30:00;10.90;99.90
14378;DHT22;7272;53.668;9.578;2022-12-29T03:33:06;11.00;99.90
14378;DHT22;7272;53.668;9.578;2022-12-29T03:36:16;11.00;99.90
14378;DHT22;7272;53.668;9.578;2022-12-29T03:39:21;11.00;99.90
14378;DHT22;7272;53.668;9.578;2022-12-29T03:42:26;11.00;99.90
14378;DHT22;7272;53.668;9.578;2022-12-29T03:45:32;11.00;99.90
14378;DHT22;7272;53.668;9.578;2022-12-29T03:48:34;11.00;99.90
14378;DHT22;7272;53.668;9.578;2022-12-29T03:51:39;11.00;99.90
14378;DHT22;7272;53.668;9.578;2022-12-29T03:54:41;11.00;99.90
14378;DHT22;7272;53.668;9.578;2022-12-29T03:57:43;11.10;99.90
14378;DHT22;7272;53.668;9.578;2022-12-29T04:00:50;11.10;99.90
14378;DHT22;7272;53.668;9.578;2022-12-29T04:03:52;11.10;99.90
14378;DHT22;7272;53.668;9.578;2022-12-29T04:06:56;11.10;99.90
14378;DHT22;7272;53.668;9.578;2022-12-29T04:09:57;11.10;99.90
14378;DHT22;7272;53.668;9.578;2022-12-29T04:13:01;11.10;99.90
14378;DHT22;7272;53.668;9.578;2022-12-29T04:16:04;11.10;99.90
14378;DHT22;7272;53.668;9.578;2022-12-29T04:19:07;11.10;99.90
14378;DHT22;7272;53.668;9.578;2022-12-29T04:22:12;11.10;99.90
14378;DHT22;7272;53.668;9.578;2022-12-29T04:25:14;11.10;99.90
14378;DHT22;7272;53.668;9.578;2022-12-29T04:28:17;11.20;99.90
14378;DHT22;7272;53.668;9.578;2022-12-29T04:31:31;11.20;99.90
14378;DHT22;7272;53.668;9.578;2022-12-29T04:34:34;11.20;99.90
14378;DHT22;7272;53.668;9.578;2022-12-29T04:37:37;11.20;99.90
14378;DHT22;7272;53.668;9.578;2022-12-29T04:40:39;11.20;99.90
14378;DHT22;7272;53.668;9.578;2022-12-29T04:43:41;11.30;99.90
14378;DHT22;7272;53.668;9.578;2022-12-29T04:47:02;11.30;99.90
14378;DHT22;7272;53.668;9.578;2022-12-29T04:50:18;11.30;99.90
14378;DHT22;7272;53.668;9.578;2022-12-29T04:53:41;11.30;99.90
14378;DHT22;7272;53.668;9.578;2022-12-29T04:56:43;11.20;99.90
14378;DHT22;7272;53.668;9.578;2022-12-29T04:59:46;11.20;99.90
14378;DHT22;7272;53.668;9.578;2022-12-29T05:02:48;11.20;99.90
14378;DHT22;7272;53.668;9.578;2022-12-29T05:05:53;11.20;99.90
14378;DHT22;7272;53.668;9.578;2022-12-29T05:08:56;11.20;99.90
14378;DHT22;7272;53.668;9.578;2022-12-29T05:11:59;11.20;99.90
14378;DHT22;7272;53.668;9.578;2022-12-29T05:15:01;11.20;99.90
14378;DHT22;7272;53.668;9.578;2022-12-29T05:18:03;11.20;99.90
14378;DHT22;7272;53.668;9.578;2022-12-29T05:21:05;11.20;99.90
14378;DHT22;7272;53.668;9.578;2022-12-29T05:24:09;11.20;99.90
14378;DHT22;7272;53.668;9.578;2022-12-29T05:27:11;11.20;99.90
14378;DHT22;7272;53.668;9.578;2022-12-29T05:30:32;11.20;99.90
14378;DHT22;7272;53.668;9.578;2022-12-29T05:33:34;11.30;99.90
14378;DHT22;7272;53.668;9.578;2022-12-29T05:36:36;11.30;99.90
14378;DHT22;7272;53.668;9.578;2022-12-29T05:39:39;11.30;99.90
14378;DHT22;7272;53.668;9.578;2022-12-29T05:42:42;11.30;99.90
14378;DHT22;7272;53.668;9.578;2022-12-29T05:46:03;11.30;99.90
14378;DHT22;7272;53.668;9.578;2022-12-29T05:49:18;11.30;99.90
14378;DHT22;7272;53.668;9.578;2022-12-29T05:52:32;11.30;99.90
14378;DHT22;7272;53.668;9.578;2022-12-29T05:55:36;11.30;99.90
14378;DHT22;7272;53.668;9.578;2022-12-29T05:58:38;11.30;99.90
14378;DHT22;7272;53.668;9.578;2022-12-29T06:01:40;11.30;99.90
14378;DHT22;7272;53.668;9.578;2022-12-29T06:04:42;11.30;99.90
14378;DHT22;7272;53.668;9.578;2022-12-29T06:07:44;11.30;99.90
14378;DHT22;7272;53.668;9.578;2022-12-29T06:10:50;11.30;99.90
14378;DHT22;7272;53.668;9.578;2022-12-29T06:13:52;11.30;99.90
14378;DHT22;7272;53.668;9.578;2022-12-29T06:16:54;11.30;99.90
14378;DHT22;7272;53.668;9.578;2022-12-29T06:19:56;11.30;99.90
14378;DHT22;7272;53.668;9.578;2022-12-29T06:22:59;11.30;99.90
14378;DHT22;7272;53.668;9.578;2022-12-29T06:26:02;11.30;99.90
14378;DHT22;7272;53.668;9.578;2022-12-29T06:29:04;11.30;99.90
14378;DHT22;7272;53.668;9.578;2022-12-29T06:32:07;11.20;99.90
14378;DHT22;7272;53.668;9.578;2022-12-29T06:35:10;11.20;99.90
14378;DHT22;7272;53.668;9.578;2022-12-29T06:38:24;11.20;99.90
14378;DHT22;7272;53.668;9.578;2022-12-29T06:41:28;11.10;99.90
14378;DHT22;7272;53.668;9.578;2022-12-29T06:44:48;11.10;99.90
14378;DHT22;7272;53.668;9.578;2022-12-29T06:47:50;11.00;99.90
14378;DHT22;7272;53.668;9.578;2022-12-29T06:50:52;11.00;99.90
14378;DHT22;7272;53.668;9.578;2022-12-29T06:53:54;11.00;99.90
14378;DHT22;7272;53.668;9.578;2022-12-29T06:56:57;11.10;99.90
14378;DHT22;7272;53.668;9.578;2022-12-29T06:59:59;11.10;99.90
14378;DHT22;7272;53.668;9.578;2022-12-29T07:03:01;11.10;99.90
14378;DHT22;7272;53.668;9.578;2022-12-29T07:06:04;11.10;99.90
14378;DHT22;7272;53.668;9.578;2022-12-29T07:09:07;11.10;99.90
14378;DHT22;7272;53.668;9.578;2022-12-29T07:12:10;11.00;99.90
14378;DHT22;7272;53.668;9.578;2022-12-29T07:15:12;11.00;99.90
14378;DHT22;7272;53.668;9.578;2022-12-29T07:18:14;11.10;99.90
14378;DHT22;7272;53.668;9.578;2022-12-29T07:21:16;11.20;99.90
14378;DHT22;7272;53.668;9.578;2022-12-29T07:24:18;11.20;99.90
14378;DHT22;7272;53.668;9.578;2022-12-29T07:27:21;11.30;99.90
14378;DHT22;7272;53.668;9.578;2022-12-29T07:30:23;11.30;99.90
14378;DHT22;7272;53.668;9.578;2022-12-29T07:33:25;11.30;99.90
14378;DHT22;7272;53.668;9.578;2022-12-29T07:36:27;11.30;99.90
14378;DHT22;7272;53.668;9.578;2022-12-29T07:39:29;11.30;99.90
14378;DHT22;7272;53.668;9.578;2022-12-29T07:42:32;11.30;99.90
14378;DHT22;7272;53.668;9.578;2022-12-29T07:45:34;11.30;99.90
14378;DHT22;7272;53.668;9.578;2022-12-29T07:48:45;11.40;99.90
14378;DHT22;7272;53.668;9.578;2022-12-29T07:51:47;11.40;99.90
14378;DHT22;7272;53.668;9.578;2022-12-29T07:54:49;11.40;99.90
14378;DHT22;7272;53.668;9.578;2022-12-29T07:57:54;11.40;99.90
14378;DHT22;7272;53.668;9.578;2022-12-29T08:00:56;11.40;99.90
14378;DHT22;7272;53.668;9.578;2022-12-29T08:03:58;11.30;99.90
14378;DHT22;7272;53.668;9.578;2022-12-29T08:07:00;11.30;99.90
14378;DHT22;7272;53.668;9.578;2022-12-29T08:10:02;11.30;99.90
14378;DHT22;7272;53.668;9.578;2022-12-29T08:13:05;11.30;99.90
14378;DHT22;7272;53.668;9.578;2022-12-29T08:16:07;11.30;99.90
14378;DHT22;7272;53.668;9.578;2022-12-29T08:19:10;11.30;99.90
14378;DHT22;7272;53.668;9.578;2022-12-29T08:22:13;11.30;99.90
14378;DHT22;7272;53.668;9.578;2022-12-29T08:25:15;11.30;99.90
14378;DHT22;7272;53.668;9.578;2022-12-29T08:28:18;11.40;99.90
14378;DHT22;7272;53.668;9.578;2022-12-29T08:31:22;11.40;99.90
14378;DHT22;7272;53.668;9.578;2022-12-29T08:34:24;11.40;99.90
14378;DHT22;7272;53.668;9.578;2022-12-29T08:37:26;11.40;99.90
14378;DHT22;7272;53.668;9.578;2022-12-29T08:40:28;11.40;99.90
14378;DHT22;7272;53.668;9.578;2022-12-29T08:43:31;11.40;99.90
14378;DHT22;7272;53.668;9.578;2022-12-29T08:46:33;11.50;99.90
14378;DHT22;7272;53.668;9.578;2022-12-29T08:49:35;11.50;99.90
14378;DHT22;7272;53.668;9.578;2022-12-29T08:52:37;11.50;99.90
14378;DHT22;7272;53.668;9.578;2022-12-29T08:55:39;11.50;99.90
14378;DHT22;7272;53.668;9.578;2022-12-29T08:58:42;11.50;99.90
14378;DHT22;7272;53.668;9.578;2022-12-29T09:01:45;11.50;99.90
14378;DHT22;7272;53.668;9.578;2022-12-29T09:04:47;11.60;99.90
14378;DHT22;7272;53.668;9.578;2022-12-29T09:07:48;11.60;99.90
14378;DHT22;7272;53.668;9.578;2022-12-29T09:10:50;11.80;99.90
14378;DHT22;7272;53.668;9.578;2022-12-29T09:13:54;11.90;99.90
14378;DHT22;7272;53.668;9.578;2022-12-29T09:16:56;11.80;99.90
14378;DHT22;7272;53.668;9.578;2022-12-29T09:20:17;11.70;99.90
14378;DHT22;7272;53.668;9.578;2022-12-29T09:23:19;11.70;99.90
14378;DHT22;7272;53.668;9.578;2022-12-29T09:26:21;11.60;99.90
14378;DHT22;7272;53.668;9.578;2022-12-29T09:29:24;11.60;99.90
14378;DHT22;7272;53.668;9.578;2022-12-29T09:32:26;11.70;99.90
14378;DHT22;7272;53.668;9.578;2022-12-29T09:35:28;11.70;99.90
14378;DHT22;7272;53.668;9.578;2022-12-29T09:38:30;11.70;99.90
14378;DHT22;7272;53.668;9.578;2022-12-29T09:41:37;11.70;99.90
14378;DHT22;7272;53.668;9.578;2022-12-29T09:44:49;11.70;99.90
14378;DHT22;7272;53.668;9.578;2022-12-29T09:47:53;11.70;99.90
14378;DHT22;7272;53.668;9.578;2022-12-29T09:50:58;11.70;99.90
14378;DHT22;7272;53.668;9.578;2022-12-29T09:54:09;11.70;99.90
14378;DHT22;7272;53.668;9.578;2022-12-29T09:57:19;11.60;99.90
14378;DHT22;7272;53.668;9.578;2022-12-29T10:00:32;11.70;99.90
14378;DHT22;7272;53.668;9.578;2022-12-29T10:03:45;11.60;99.90
14378;DHT22;7272;53.668;9.578;2022-12-29T10:06:55;11.50;99.90
14378;DHT22;7272;53.668;9.578;2022-12-29T10:10:04;11.50;99.90
14378;DHT22;7272;53.668;9.578;2022-12-29T10:13:33;11.50;99.90
14378;DHT22;7272;53.668;9.578;2022-12-29T10:16:46;11.50;99.90
14378;DHT22;7272;53.668;9.578;2022-12-29T10:20:02;11.60;99.90
14378;DHT22;7272;53.668;9.578;2022-12-29T10:23:26;11.60;99.90
14378;DHT22;7272;53.668;9.578;2022-12-29T10:26:31;11.60;99.90
14378;DHT22;7272;53.668;9.578;2022-12-29T10:29:37;11.60;99.90
14378;DHT22;7272;53.668;9.578;2022-12-29T10:32:46;11.70;99.90
14378;DHT22;7272;53.668;9.578;2022-12-29T10:35:51;11.60;99.90
14378;DHT22;7272;53.668;9.578;2022-12-29T10:39:00;11.60;99.90
14378;DHT22;7272;53.668;9.578;2022-12-29T10:42:09;11.60;99.90
14378;DHT22;7272;53.668;9.578;2022-12-29T10:45:13;11.60;99.90
14378;DHT22;7272;53.668;9.578;2022-12-29T10:48:20;11.60;99.90
14378;DHT22;7272;53.668;9.578;2022-12-29T10:51:25;11.60;99.90
14378;DHT22;7272;53.668;9.578;2022-12-29T10:54:31;11.70;99.90
14378;DHT22;7272;53.668;9.578;2022-12-29T10:57:36;11.70;99.90
14378;DHT22;7272;53.668;9.578;2022-12-29T11:00:41;11.70;99.90
14378;DHT22;7272;53.668;9.578;2022-12-29T11:03:53;11.70;99.90
14378;DHT22;7272;53.668;9.578;2022-12-29T11:07:01;11.80;99.90
14378;DHT22;7272;53.668;9.578;2022-12-29T11:10:21;11.90;99.90
14378;DHT22;7272;53.668;9.578;2022-12-29T11:13:31;12.20;99.90
14378;DHT22;7272;53.668;9.578;2022-12-29T11:16:34;12.20;99.90
14378;DHT22;7272;53.668;9.578;2022-12-29T11:19:38;12.20;99.90
14378;DHT22;7272;53.668;9.578;2022-12-29T11:22:44;12.20;99.90
14378;DHT22;7272;53.668;9.578;2022-12-29T11:25:45;12.20;99.90
14378;DHT22;7272;53.668;9.578;2022-12-29T11:29:20;12.10;99.90
14378;DHT22;7272;53.668;9.578;2022-12-29T11:32:24;12.00;99.90
14378;DHT22;7272;53.668;9.578;2022-12-29T11:35:34;12.00;99.90
14378;DHT22;7272;53.668;9.578;2022-12-29T11:38:38;11.90;99.90
14378;DHT22;7272;53.668;9.578;2022-12-29T11:41:40;11.80;99.90
14378;DHT22;7272;53.668;9.578;2022-12-29T11:44:44;11.80;99.90
14378;DHT22;7272;53.668;9.578;2022-12-29T11:47:49;11.80;99.90
14378;DHT22;7272;53.668;9.578;2022-12-29T11:50:54;11.80;99.90
14378;DHT22;7272;53.668;9.578;2022-12-29T11:53:58;11.90;99.90
14378;DHT22;7272;53.668;9.578;2022-12-29T11:57:09;11.90;99.90
14378;DHT22;7272;53.668;9.578;2022-12-29T12:00:17;12.00;99.90
14378;DHT22;7272;53.668;9.578;2022-12-29T12:03:22;11.90;99.90
14378;DHT22;7272;53.668;9.578;2022-12-29T12:06:27;12.00;99.90
14378;DHT22;7272;53.668;9.578;2022-12-29T12:09:34;12.10;99.90
14378;DHT22;7272;53.668;9.578;2022-12-29T12:12:43;12.10;99.90
14378;DHT22;7272;53.668;9.578;2022-12-29T12:15:51;12.00;99.90
14378;DHT22;7272;53.668;9.578;2022-12-29T12:18:57;11.80;99.90
14378;DHT22;7272;53.668;9.578;2022-12-29T12:22:07;11.70;99.90
14378;DHT22;7272;53.668;9.578;2022-12-29T12:25:14;11.60;99.90
14378;DHT22;7272;53.668;9.578;2022-12-29T12:28:23;11.50;99.90
14378;DHT22;7272;53.668;9.578;2022-12-29T12:31:39;11.50;99.90
14378;DHT22;7272;53.668;9.578;2022-12-29T12:34:44;11.50;99.90
14378;DHT22;7272;53.668;9.578;2022-12-29T12:37:58;11.40;99.90
14378;DHT22;7272;53.668;9.578;2022-12-29T12:41:09;11.30;99.90
14378;DHT22;7272;53.668;9.578;2022-12-29T12:44:18;11.30;99.90
14378;DHT22;7272;53.668;9.578;2022-12-29T12:47:48;11.30;99.90
14378;DHT22;7272;53.668;9.578;2022-12-29T12:50:59;11.20;99.90
14378;DHT22;7272;53.668;9.578;2022-12-29T12:54:17;11.20;99.90
14378;DHT22;7272;53.668;9.578;2022-12-29T12:57:31;11.20;99.90
14378;DHT22;7272;53.668;9.578;2022-12-29T13:00:42;11.10;99.90
14378;DHT22;7272;53.668;9.578;2022-12-29T13:03:59;11.20;99.90
14378;DHT22;7272;53.668;9.578;2022-12-29T13:07:08;11.20;99.90
14378;DHT22;7272;53.668;9.578;2022-12-29T13:10:31;11.20;99.90
14378;DHT22;7272;53.668;9.578;2022-12-29T13:13:57;11.20;99.90
14378;DHT22;7272;53.668;9.578;2022-12-29T13:17:07;11.20;99.90
14378;DHT22;7272;53.668;9.578;2022-12-29T13:20:20;11.20;99.90
14378;DHT22;7272;53.668;9.578;2022-12-29T13:23:34;11.20;99.90
14378;DHT22;7272;53.668;9.578;2022-12-29T13:26:43;11.20;99.90
14378;DHT22;7272;53.668;9.578;2022-12-29T13:29:53;11.20;99.90
14378;DHT22;7272;53.668;9.578;2022-12-29T13:33:14;11.10;99.90
14378;DHT22;7272;53.668;9.578;2022-12-29T13:36:22;11.10;99.90
14378;DHT22;7272;53.668;9.578;2022-12-29T13:39:30;11.00;99.90
14378;DHT22;7272;53.668;9.578;2022-12-29T13:42:35;11.00;99.90
14378;DHT22;7272;53.668;9.578;2022-12-29T13:45:39;11.00;99.90
14378;DHT22;7272;53.668;9.578;2022-12-29T13:48:45;11.00;99.90
14378;DHT22;7272;53.668;9.578;2022-12-29T13:51:50;11.00;99.90
14378;DHT22;7272;53.668;9.578;2022-12-29T13:54:59;11.10;99.90
14378;DHT22;7272;53.668;9.578;2022-12-29T13:58:09;11.10;99.90
14378;DHT22;7272;53.668;9.578;2022-12-29T14:01:17;11.10;99.90
14378;DHT22;7272;53.668;9.578;2022-12-29T14:04:25;11.00;99.90
14378;DHT22;7272;53.668;9.578;2022-12-29T14:07:27;11.00;99.90
14378;DHT22;7272;53.668;9.578;2022-12-29T14:10:32;10.90;99.90
14378;DHT22;7272;53.668;9.578;2022-12-29T14:13:40;10.80;99.90
14378;DHT22;7272;53.668;9.578;2022-12-29T14:16:42;10.80;99.90
14378;DHT22;7272;53.668;9.578;2022-12-29T14:19:45;10.80;99.90
14378;DHT22;7272;53.668;9.578;2022-12-29T14:22:59;10.70;99.90
14378;DHT22;7272;53.668;9.578;2022-12-29T14:26:14;10.70;99.90
14378;DHT22;7272;53.668;9.578;2022-12-29T14:29:45;10.60;99.90
14378;DHT22;7272;53.668;9.578;2022-12-29T14:33:01;10.50;99.90
14378;DHT22;7272;53.668;9.578;2022-12-29T14:36:20;10.40;99.90
14378;DHT22;7272;53.668;9.578;2022-12-29T14:39:32;10.40;99.90
14378;DHT22;7272;53.668;9.578;2022-12-29T14:42:37;10.40;99.90
14378;DHT22;7272;53.668;9.578;2022-12-29T14:45:42;10.30;99.90
14378;DHT22;7272;53.668;9.578;2022-12-29T14:48:44;10.30;99.90
14378;DHT22;7272;53.668;9.578;2022-12-29T14:51:47;10.30;99.90
14378;DHT22;7272;53.668;9.578;2022-12-29T14:54:54;10.30;99.90
14378;DHT22;7272;53.668;9.578;2022-12-29T14:57:59;10.20;99.90
14378;DHT22;7272;53.668;9.578;2022-12-29T15:01:04;10.20;99.90
14378;DHT22;7272;53.668;9.578;2022-12-29T15:04:19;10.20;99.90
14378;DHT22;7272;53.668;9.578;2022-12-29T15:07:22;10.20;99.90
14378;DHT22;7272;53.668;9.578;2022-12-29T15:10:25;10.20;99.90
14378;DHT22;7272;53.668;9.578;2022-12-29T15:13:34;10.20;99.90
14378;DHT22;7272;53.668;9.578;2022-12-29T15:16:37;10.20;99.90
14378;DHT22;7272;53.668;9.578;2022-12-29T15:19:39;10.20;99.90
14378;DHT22;7272;53.668;9.578;2022-12-29T15:22:42;10.20;99.90
14378;DHT22;7272;53.668;9.578;2022-12-29T15:25:47;10.20;99.90
14378;DHT22;7272;53.668;9.578;2022-12-29T15:28:52;10.20;99.90
14378;DHT22;7272;53.668;9.578;2022-12-29T15:31:57;10.20;99.90
14378;DHT22;7272;53.668;9.578;2022-12-29T15:35:00;10.10;99.90
14378;DHT22;7272;53.668;9.578;2022-12-29T15:38:21;10.10;99.90
14378;DHT22;7272;53.668;9.578;2022-12-29T15:41:28;10.00;99.90
14378;DHT22;7272;53.668;9.578;2022-12-29T15:44:34;10.00;99.90
14378;DHT22;7272;53.668;9.578;2022-12-29T15:47:41;9.90;99.90
14378;DHT22;7272;53.668;9.578;2022-12-29T15:50:44;10.00;99.90
14378;DHT22;7272;53.668;9.578;2022-12-29T15:53:47;10.00;99.90
14378;DHT22;7272;53.668;9.578;2022-12-29T15:56:50;9.90;99.90
14378;DHT22;7272;53.668;9.578;2022-12-29T15:59:52;9.80;99.90
14378;DHT22;7272;53.668;9.578;2022-12-29T16:02:59;9.80;99.90
14378;DHT22;7272;53.668;9.578;2022-12-29T16:06:09;9.80;99.90
14378;DHT22;7272;53.668;9.578;2022-12-29T16:09:15;9.80;99.90
14378;DHT22;7272;53.668;9.578;2022-12-29T16:12:20;9.70;99.90
14378;DHT22;7272;53.668;9.578;2022-12-29T16:15:22;9.70;99.90
14378;DHT22;7272;53.668;9.578;2022-12-29T16:18:33;9.70;99.90
14378;DHT22;7272;53.668;9.578;2022-12-29T16:21:36;9.70;99.90
14378;DHT22;7272;53.668;9.578;2022-12-29T16:24:39;9.60;99.90
14378;DHT22;7272;53.668;9.578;2022-12-29T16:27:42;9.60;99.90
14378;DHT22;7272;53.668;9.578;2022-12-29T16:30:44;9.60;99.90
14378;DHT22;7272;53.668;9.578;2022-12-29T16:33:48;9.50;99.90
14378;DHT22;7272;53.668;9.578;2022-12-29T16:36:56;9.50;99.90
14378;DHT22;7272;53.668;9.578;2022-12-29T16:40:25;9.50;99.90
14378;DHT22;7272;53.668;9.578;2022-12-29T16:43:30;9.50;99.90
14378;DHT22;7272;53.668;9.578;2022-12-29T16:46:33;9.70;99.90
14378;DHT22;7272;53.668;9.578;2022-12-29T16:49:38;9.70;99.90
14378;DHT22;7272;53.668;9.578;2022-12-29T16:52:40;9.70;99.90
14378;DHT22;7272;53.668;9.578;2022-12-29T16:55:46;9.50;99.90
14378;DHT22;7272;53.668;9.578;2022-12-29T16:58:48;9.40;99.90
14378;DHT22;7272;53.668;9.578;2022-12-29T17:01:51;9.30;99.90
14378;DHT22;7272;53.668;9.578;2022-12-29T17:04:55;9.20;99.90
14378;DHT22;7272;53.668;9.578;2022-12-29T17:07:57;9.10;99.90
14378;DHT22;7272;53.668;9.578;2022-12-29T17:11:01;9.00;99.90
14378;DHT22;7272;53.668;9.578;2022-12-29T17:14:29;9.00;99.90
14378;DHT22;7272;53.668;9.578;2022-12-29T17:17:34;8.90;99.90
14378;DHT22;7272;53.668;9.578;2022-12-29T17:20:38;8.80;99.90
14378;DHT22;7272;53.668;9.578;2022-12-29T17:23:40;8.80;99.90
14378;DHT22;7272;53.668;9.578;2022-12-29T17:26:42;8.80;99.90
14378;DHT22;7272;53.668;9.578;2022-12-29T17:29:45;8.80;99.90
14378;DHT22;7272;53.668;9.578;2022-12-29T17:32:50;8.80;99.90
14378;DHT22;7272;53.668;9.578;2022-12-29T17:35:54;8.80;99.90
14378;DHT22;7272;53.668;9.578;2022-12-29T17:38:56;8.80;99.90
14378;DHT22;7272;53.668;9.578;2022-12-29T17:41:58;8.80;99.90
14378;DHT22;7272;53.668;9.578;2022-12-29T17:45:00;8.80;99.90
14378;DHT22;7272;53.668;9.578;2022-12-29T17:48:07;8.80;99.90
14378;DHT22;7272;53.668;9.578;2022-12-29T17:51:13;8.90;99.90
14378;DHT22;7272;53.668;9.578;2022-12-29T17:54:20;9.00;99.90
14378;DHT22;7272;53.668;9.578;2022-12-29T17:57:22;9.10;99.90
14378;DHT22;7272;53.668;9.578;2022-12-29T18:00:27;9.10;99.90
14378;DHT22;7272;53.668;9.578;2022-12-29T18:03:32;9.00;99.90
14378;DHT22;7272;53.668;9.578;2022-12-29T18:06:36;9.00;99.90
14378;DHT22;7272;53.668;9.578;2022-12-29T18:09:38;9.00;99.90
14378;DHT22;7272;53.668;9.578;2022-12-29T18:12:42;9.00;99.90
14378;DHT22;7272;53.668;9.578;2022-12-29T18:15:44;9.00;99.90
14378;DHT22;7272;53.668;9.578;2022-12-29T18:18:46;9.00;99.90
14378;DHT22;7272;53.668;9.578;2022-12-29T18:21:49;9.00;99.90
14378;DHT22;7272;53.668;9.578;2022-12-29T18:24:51;9.00;99.90
14378;DHT22;7272;53.668;9.578;2022-12-29T18:27:54;9.00;99.90
14378;DHT22;7272;53.668;9.578;2022-12-29T18:30:57;9.00;99.90
14378;DHT22;7272;53.668;9.578;2022-12-29T18:34:01;9.00;99.90
14378;DHT22;7272;53.668;9.578;2022-12-29T18:37:07;9.00;99.90
14378;DHT22;7272;53.668;9.578;2022-12-29T18:40:11;9.10;99.90
14378;DHT22;7272;53.668;9.578;2022-12-29T18:43:13;9.10;99.90
14378;DHT22;7272;53.668;9.578;2022-12-29T18:46:15;9.00;99.90
14378;DHT22;7272;53.668;9.578;2022-12-29T18:49:18;9.10;99.90
14378;DHT22;7272;53.668;9.578;2022-12-29T18:52:21;9.10;99.90
14378;DHT22;7272;53.668;9.578;2022-12-29T18:55:27;9.20;99.90
14378;DHT22;7272;53.668;9.578;2022-12-29T18:58:29;9.20;99.90
14378;DHT22;7272;53.668;9.578;2022-12-29T19:01:30;9.30;99.90
14378;DHT22;7272;53.668;9.578;2022-12-29T19:04:32;9.30;99.90
14378;DHT22;7272;53.668;9.578;2022-12-29T19:07:36;9.50;99.90
14378;DHT22;7272;53.668;9.578;2022-12-29T19:10:39;9.50;99.90
14378;DHT22;7272;53.668;9.578;2022-12-29T19:13:41;9.50;99.90
14378;DHT22;7272;53.668;9.578;2022-12-29T19:16:48;9.50;99.90
14378;DHT22;7272;53.668;9.578;2022-12-29T19:19:50;9.50;99.90
14378;DHT22;7272;53.668;9.578;2022-12-29T19:22:54;9.50;99.90
14378;DHT22;7272;53.668;9.578;2022-12-29T19:25:56;9.40;99.90
14378;DHT22;7272;53.668;9.578;2022-12-29T19:28:58;9.50;99.90
14378;DHT22;7272;53.668;9.578;2022-12-29T19:32:00;9.50;99.90
14378;DHT22;7272;53.668;9.578;2022-12-29T19:35:02;9.40;99.90
14378;DHT22;7272;53.668;9.578;2022-12-29T19:38:06;9.40;99.90
14378;DHT22;7272;53.668;9.578;2022-12-29T19:41:08;9.40;99.90
14378;DHT22;7272;53.668;9.578;2022-12-29T19:44:10;9.30;99.90
14378;DHT22;7272;53.668;9.578;2022-12-29T19:47:12;9.30;99.90
14378;DHT22;7272;53.668;9.578;2022-12-29T19:50:16;9.20;99.90
14378;DHT22;7272;53.668;9.578;2022-12-29T19:53:19;9.20;99.90
14378;DHT22;7272;53.668;9.578;2022-12-29T19:56:21;9.20;99.90
14378;DHT22;7272;53.668;9.578;2022-12-29T19:59:23;9.10;99.90
14378;DHT22;7272;53.668;9.578;2022-12-29T20:02:27;9.10;99.90